Terminal Aerodrome Forecast
Issued by NWS

Home | Current Version | Previous Version | Text Only | Print | Product List | Glossary On
Versions: 1 2 3 4 5 6 7 8 9 10 11 12 13 14 15 16 17 18 19 20 21 22 23 24 25 26 27 28 29 30 31 32 33 34 35 36 37 38 39 40 41
000
FTUS43 KMKX 291731
TAFENW
TAF
KENW 291731Z 2918/3018 17011KT P6SM SCT070 BKN150
      TEMPO 2920/2922 3SM -TSRA BKN050CB
     FM300300 18011KT P6SM SCT070 BKN120
     FM300500 19009KT 6SM -TSRA BR SCT020 BKN090CB
     FM301200 20009KT 5SM -TSRA BR OVC020CB
     FM301500 22010KT 6SM -SHRA OVC018
     FM301700 22010KT P6SM VCSH BKN025=

USA.gov is the U.S. government's official web portal to all federal, state and local government web resources and services.